createdAt,value
2024-03-05T00:00:54.433Z,12.43
2024-03-05T00:01:57.171Z,12.29
2024-03-05T00:02:58.680Z,12.37
2024-03-05T00:04:01.050Z,12.37
2024-03-05T00:05:04.946Z,12.36
2024-03-05T00:06:07.515Z,12.37
2024-03-05T00:07:09.373Z,12.41
2024-03-05T00:08:11.057Z,12.44
2024-03-05T00:09:12.566Z,12.43
2024-03-05T00:10:14.677Z,12.40
2024-03-05T00:11:16.555Z,12.40
2024-03-05T00:12:18.778Z,12.42
2024-03-05T00:13:20.549Z,12.43
2024-03-05T00:14:22.457Z,12.39
2024-03-05T00:15:23.958Z,12.46
2024-03-05T00:16:25.496Z,12.49
2024-03-05T00:17:27.807Z,12.40
2024-03-05T00:18:30.519Z,12.42
2024-03-05T00:19:32.343Z,12.37
2024-03-05T00:20:34.008Z,12.37
2024-03-05T00:21:35.782Z,12.34
2024-03-05T00:22:38.074Z,12.35
2024-03-05T00:23:40.235Z,12.36
2024-03-05T00:24:41.711Z,12.38
2024-03-05T00:25:43.426Z,12.41
2024-03-05T00:26:45.083Z,12.42
2024-03-05T00:27:47.079Z,12.42
2024-03-05T00:28:48.686Z,12.36
2024-03-05T00:29:50.196Z,12.34
2024-03-05T00:30:52.040Z,12.43
2024-03-05T00:31:53.583Z,12.39
2024-03-05T00:32:56.067Z,12.42
2024-03-05T00:33:57.539Z,12.41
2024-03-05T00:34:59.053Z,12.34
2024-03-05T00:36:00.547Z,12.33
2024-03-05T00:37:02.016Z,12.30
2024-03-05T00:38:09.225Z,12.34
2024-03-05T00:39:13.997Z,12.40
2024-03-05T00:40:15.725Z,12.41
2024-03-05T00:41:19.307Z,12.43
2024-03-05T00:42:20.846Z,12.42
2024-03-05T00:43:22.962Z,12.43
2024-03-05T00:44:24.520Z,12.42
2024-03-05T00:45:26.928Z,12.33
2024-03-05T00:46:28.448Z,12.33
2024-03-05T00:47:31.519Z,12.32
2024-03-05T00:48:33.190Z,12.32
2024-03-05T00:49:34.787Z,12.33
2024-03-05T00:50:36.329Z,12.30
2024-03-05T00:51:37.898Z,12.33
2024-03-05T00:52:40.143Z,12.34
2024-03-05T00:53:41.643Z,12.35
2024-03-05T00:54:43.107Z,12.40
2024-03-05T00:55:45.412Z,12.38
2024-03-05T00:56:47.054Z,12.37
2024-03-05T00:57:48.882Z,12.41
2024-03-05T00:58:51.603Z,12.41
2024-03-05T00:59:56.629Z,12.40
2024-03-05T01:00:58.126Z,12.38
2024-03-05T01:02:00.472Z,12.34
2024-03-05T01:03:02.770Z,12.31
2024-03-05T01:04:06.089Z,12.32
2024-03-05T01:05:10.964Z,12.35
2024-03-05T01:06:12.566Z,12.35
2024-03-05T01:07:14.159Z,12.37
2024-03-05T01:08:16.317Z,12.34
2024-03-05T01:09:19.860Z,12.35
2024-03-05T01:10:21.666Z,12.27
2024-03-05T01:11:23.208Z,12.38
2024-03-05T01:12:25.500Z,12.34
2024-03-05T01:13:28.240Z,12.34
2024-03-05T01:14:29.761Z,12.38
2024-03-05T01:15:31.681Z,12.39
2024-03-05T01:16:33.434Z,12.36
2024-03-05T01:17:38.080Z,12.35
2024-03-05T01:18:39.873Z,12.32
2024-03-05T01:19:41.456Z,12.25
2024-03-05T01:20:43.341Z,12.35
2024-03-05T01:21:45.160Z,12.34
2024-03-05T01:22:48.250Z,12.33
2024-03-05T01:23:49.968Z,12.24
2024-03-05T01:24:52.100Z,12.25
2024-03-05T01:25:53.912Z,12.21
2024-03-05T01:26:55.433Z,12.22
2024-03-05T01:27:59.441Z,12.20
2024-03-05T01:29:01.016Z,12.20
2024-03-05T01:30:02.575Z,12.21
2024-03-05T01:31:04.300Z,12.17
2024-03-05T01:32:06.187Z,12.06
2024-03-05T01:33:10.966Z,12.17
2024-03-05T01:34:12.636Z,12.24
2024-03-05T01:35:14.354Z,12.23
2024-03-05T01:36:17.048Z,12.21
2024-03-05T01:37:18.565Z,12.22
2024-03-05T01:38:22.023Z,12.23
2024-03-05T01:39:30.105Z,12.19
2024-03-05T01:40:31.803Z,12.22
2024-03-05T01:41:33.289Z,12.29
2024-03-05T01:42:34.834Z,12.29
2024-03-05T01:43:37.192Z,12.20
2024-03-05T01:44:38.705Z,12.21
2024-03-05T01:45:40.232Z,12.23
2024-03-05T01:46:41.836Z,12.21
2024-03-05T01:47:45.424Z,12.20
2024-03-05T01:48:47.027Z,12.15
2024-03-05T01:49:48.784Z,12.10
2024-03-05T01:50:50.410Z,11.89
2024-03-05T01:51:54.779Z,12.02
2024-03-05T01:52:56.947Z,12.08
2024-03-05T01:54:00.295Z,12.14
2024-03-05T01:55:07.391Z,12.16
2024-03-05T01:56:09.415Z,12.26
2024-03-05T01:57:10.984Z,12.22
2024-03-05T01:58:16.118Z,12.11
2024-03-05T01:59:18.686Z,12.12
2024-03-05T02:00:21.901Z,12.02
2024-03-05T02:01:24.176Z,12.02
2024-03-05T02:02:25.884Z,11.68
2024-03-05T02:03:27.462Z,12.01
2024-03-05T02:04:29.732Z,12.02
2024-03-05T02:05:31.365Z,12.03
2024-03-05T02:06:33.821Z,12.05
2024-03-05T02:07:38.490Z,12.05
2024-03-05T02:08:40.240Z,11.98
2024-03-05T02:09:42.430Z,11.94
2024-03-05T02:10:44.063Z,12.04
2024-03-05T02:11:55.779Z,12.08
2024-03-05T02:13:01.027Z,12.11
2024-03-05T02:14:02.917Z,12.16
2024-03-05T02:15:07.687Z,12.12
2024-03-05T02:16:09.899Z,12.17
2024-03-05T02:17:13.323Z,12.14
2024-03-05T02:18:14.860Z,12.13
2024-03-05T02:19:17.972Z,12.08
2024-03-05T02:20:21.648Z,12.09
2024-03-05T02:21:23.275Z,11.98
2024-03-05T02:22:24.826Z,12.04
2024-03-05T02:23:26.339Z,12.07
2024-03-05T02:24:28.226Z,12.00
2024-03-05T02:25:32.575Z,12.19
2024-03-05T02:26:34.597Z,11.62
2024-03-05T02:27:37.803Z,11.72
2024-03-05T02:28:39.762Z,11.76
2024-03-05T02:29:43.008Z,11.85
2024-03-05T02:30:44.939Z,11.80
2024-03-05T02:31:46.533Z,11.92
2024-03-05T02:32:48.142Z,12.00
2024-03-05T02:33:49.722Z,11.71
2024-03-05T02:34:54.605Z,11.74
2024-03-05T02:35:59.546Z,11.70
2024-03-05T02:37:01.358Z,11.54
2024-03-05T02:38:06.739Z,11.48
2024-03-05T02:39:08.473Z,11.62
2024-03-05T02:40:11.585Z,11.54
2024-03-05T02:41:13.164Z,11.72
2024-03-05T02:42:14.688Z,11.76
2024-03-05T02:43:16.764Z,11.81
2024-03-05T02:44:18.701Z,11.81
2024-03-05T02:45:20.201Z,11.87
2024-03-05T02:46:21.773Z,11.71
2024-03-05T02:47:23.376Z,11.89
2024-03-05T02:48:25.180Z,11.94
2024-03-05T02:49:26.723Z,11.98
2024-03-05T02:50:28.226Z,11.98
2024-03-05T02:51:30.114Z,11.84
2024-03-05T02:52:32.393Z,11.11
2024-03-05T02:53:36.177Z,11.49
2024-03-05T02:54:38.414Z,11.70
2024-03-05T02:55:40.238Z,11.80
2024-03-05T02:56:41.794Z,11.88
2024-03-05T02:57:43.617Z,11.90
2024-03-05T02:58:45.239Z,11.94
2024-03-05T02:59:47.144Z,11.75
2024-03-05T03:00:48.791Z,11.84
2024-03-05T03:01:51.519Z,11.89
2024-03-05T03:02:53.094Z,11.84
2024-03-05T03:03:55.078Z,11.94
2024-03-05T03:04:56.630Z,11.96
2024-03-05T03:05:58.148Z,11.97
2024-03-05T03:07:00.089Z,12.02
2024-03-05T03:08:01.637Z,12.05
2024-03-05T03:09:04.543Z,11.90
2024-03-05T03:10:09.699Z,11.97
2024-03-05T03:11:20.601Z,11.99
2024-03-05T03:12:22.265Z,12.03
2024-03-05T03:13:24.640Z,12.01
2024-03-05T03:14:26.772Z,12.02
2024-03-05T03:15:30.382Z,12.01
2024-03-05T03:16:31.904Z,11.93
2024-03-05T03:17:36.447Z,11.92
2024-03-05T03:18:37.942Z,11.87
2024-03-05T03:19:39.819Z,11.88
2024-03-05T03:20:41.347Z,11.91
2024-03-05T03:21:43.419Z,11.93
2024-03-05T03:22:46.854Z,11.93
2024-03-05T03:23:48.412Z,12.00
2024-03-05T03:24:49.908Z,11.94
2024-03-05T03:25:51.548Z,11.92
2024-03-05T03:26:53.563Z,11.97
2024-03-05T03:27:55.126Z,11.95
2024-03-05T03:28:57.134Z,11.83
2024-03-05T03:29:59.250Z,11.93
2024-03-05T03:31:01.605Z,11.96
2024-03-05T03:32:05.417Z,11.92
2024-03-05T03:33:07.007Z,11.88
2024-03-05T03:34:08.912Z,11.52
2024-03-05T03:35:11.148Z,11.15
2024-03-05T03:36:22.432Z,11.29
2024-03-05T03:37:23.988Z,10.49
2024-03-05T03:38:25.470Z,11.01
2024-03-05T03:39:27.078Z,11.31
2024-03-05T03:40:34.466Z,11.51
2024-03-05T03:41:36.144Z,11.62
2024-03-05T03:42:37.629Z,11.63
2024-03-05T03:43:39.178Z,11.34
2024-03-05T03:44:41.187Z,11.24
2024-03-05T03:45:42.915Z,11.26
2024-03-05T03:46:44.879Z,10.99
2024-03-05T03:47:47.416Z,11.15
2024-03-05T03:48:49.977Z,11.32
2024-03-05T03:49:52.597Z,11.46
2024-03-05T03:50:54.257Z,11.52
2024-03-05T03:51:55.832Z,10.86
2024-03-05T03:52:57.383Z,10.90
2024-03-05T03:53:59.115Z,11.21
2024-03-05T03:55:01.071Z,11.30
2024-03-05T03:56:02.627Z,11.49
2024-03-05T03:57:04.284Z,11.48
2024-03-05T03:58:05.814Z,11.58
2024-03-05T03:59:08.854Z,11.57
2024-03-05T04:00:11.036Z,11.43
2024-03-05T04:01:12.864Z,11.50
2024-03-05T04:02:14.397Z,11.55
2024-03-05T04:03:16.436Z,11.58
2024-03-05T04:04:18.546Z,11.52
2024-03-05T04:05:20.053Z,11.61
2024-03-05T04:06:21.576Z,11.58
2024-03-05T04:07:25.051Z,11.67
2024-03-05T04:08:26.640Z,11.69
2024-03-05T04:09:29.109Z,11.60
2024-03-05T04:10:30.656Z,11.69
2024-03-05T04:11:32.886Z,11.58
2024-03-05T04:12:40.114Z,11.69
2024-03-05T04:13:41.624Z,11.64
2024-03-05T04:14:43.555Z,11.65
2024-03-05T04:15:45.065Z,11.67
2024-03-05T04:16:46.647Z,11.72
2024-03-05T04:17:48.348Z,11.66
2024-03-05T04:18:49.843Z,11.72
2024-03-05T04:19:52.868Z,11.63
2024-03-05T04:20:54.738Z,11.72
2024-03-05T04:21:56.233Z,11.70
2024-03-05T04:22:58.123Z,11.73
2024-03-05T04:23:59.660Z,11.74
2024-03-05T04:25:01.587Z,11.71
2024-03-05T04:26:09.537Z,11.80
2024-03-05T04:27:12.885Z,11.85
2024-03-05T04:28:14.685Z,11.83
2024-03-05T04:29:20.880Z,11.75
2024-03-05T04:30:24.848Z,11.84
2024-03-05T04:31:35.225Z,11.84
2024-03-05T04:32:56.248Z,11.86
2024-03-05T04:34:04.036Z,11.67
2024-03-05T04:35:07.891Z,11.72
2024-03-05T04:36:10.454Z,11.67
2024-03-05T04:37:12.120Z,11.69
2024-03-05T04:38:13.739Z,11.64
2024-03-05T04:39:17.148Z,11.66
2024-03-05T04:40:20.028Z,11.63
2024-03-05T04:41:21.557Z,11.40
2024-03-05T04:42:26.105Z,11.59
2024-03-05T04:43:27.629Z,11.69
2024-03-05T04:44:30.389Z,11.63
2024-03-05T04:45:34.359Z,11.60
2024-03-05T04:46:35.896Z,11.54
2024-03-05T04:47:38.224Z,11.62
2024-03-05T04:48:39.801Z,11.66
2024-03-05T04:49:41.326Z,11.60
2024-03-05T04:50:43.619Z,11.54
2024-03-05T04:51:45.209Z,11.53
2024-03-05T04:52:46.825Z,11.51
2024-03-05T04:53:48.365Z,11.55
2024-03-05T04:54:49.892Z,11.55
2024-03-05T04:55:51.909Z,11.52
2024-03-05T04:56:53.558Z,11.41
2024-03-05T04:57:55.179Z,11.42
2024-03-05T04:58:56.809Z,11.59
2024-03-05T04:59:59.232Z,11.55
2024-03-05T05:01:00.787Z,11.50
2024-03-05T05:02:02.912Z,11.51
2024-03-05T05:03:05.238Z,11.54
2024-03-05T05:04:07.191Z,11.54
2024-03-05T05:05:09.140Z,11.48
2024-03-05T05:06:11.787Z,11.42
2024-03-05T05:07:13.272Z,11.54
2024-03-05T05:08:16.844Z,11.54
2024-03-05T05:09:21.721Z,11.64
2024-03-05T05:10:23.596Z,11.64
2024-03-05T05:11:25.275Z,11.59
2024-03-05T05:12:26.826Z,11.62
2024-03-05T05:13:28.484Z,11.54
2024-03-05T05:14:30.668Z,11.57
2024-03-05T05:15:32.557Z,11.46
2024-03-05T05:16:34.103Z,11.69
2024-03-05T05:17:35.802Z,11.68
2024-03-05T05:18:38.793Z,11.54
2024-03-05T05:20:44.656Z,11.40
2024-03-05T05:21:46.735Z,11.45
2024-03-05T05:22:48.725Z,11.59
2024-03-05T05:23:50.346Z,11.60
2024-03-05T05:24:51.868Z,11.55
2024-03-05T05:25:54.310Z,11.55
2024-03-05T05:26:55.821Z,11.57
2024-03-05T05:27:57.324Z,11.60
2024-03-05T05:28:58.849Z,11.49
2024-03-05T05:30:08.463Z,11.57
2024-03-05T05:31:28.040Z,11.51
2024-03-05T05:32:29.710Z,11.62
2024-03-05T05:33:31.264Z,11.61
2024-03-05T05:34:32.795Z,11.59
2024-03-05T05:35:38.884Z,11.54
2024-03-05T05:36:40.434Z,11.59
2024-03-05T05:37:42.028Z,11.54
2024-03-05T05:38:44.700Z,11.49
2024-03-05T05:39:46.223Z,11.41
2024-03-05T05:40:47.753Z,11.49
2024-03-05T05:41:49.252Z,11.44
2024-03-05T05:42:51.028Z,11.61
2024-03-05T05:43:52.584Z,11.53
2024-03-05T05:44:54.144Z,11.58
2024-03-05T05:45:55.664Z,11.59
2024-03-05T05:46:57.920Z,11.52
2024-03-05T05:47:59.676Z,11.51
2024-03-05T05:49:06.540Z,11.52
2024-03-05T05:50:18.613Z,11.59
2024-03-05T05:51:20.283Z,11.64
2024-03-05T05:52:23.189Z,11.66
2024-03-05T05:53:24.781Z,11.67
2024-03-05T05:54:26.414Z,11.63
2024-03-05T05:55:28.542Z,11.62
2024-03-05T05:56:30.996Z,11.61
2024-03-05T05:57:32.591Z,11.66
2024-03-05T05:58:34.631Z,11.67
2024-03-05T05:59:36.275Z,11.59
2024-03-05T06:00:38.246Z,11.60
2024-03-05T06:01:40.205Z,11.61
2024-03-05T06:02:41.791Z,11.61
2024-03-05T06:03:46.012Z,11.61
2024-03-05T06:04:47.774Z,11.66
2024-03-05T06:05:49.639Z,11.67
2024-03-05T06:06:52.482Z,11.59
2024-03-05T06:07:55.042Z,11.60
2024-03-05T06:08:56.763Z,11.58
2024-03-05T06:09:58.262Z,11.59
2024-03-05T06:10:59.937Z,11.59
2024-03-05T06:12:02.841Z,11.60
2024-03-05T06:13:04.440Z,11.60
2024-03-05T06:14:08.313Z,11.50
2024-03-05T06:15:10.967Z,11.62
2024-03-05T06:16:12.820Z,11.54
2024-03-05T06:17:14.499Z,11.66
2024-03-05T06:18:17.124Z,11.70
2024-03-05T06:19:18.686Z,11.70
2024-03-05T06:20:20.248Z,11.64
2024-03-05T06:21:22.077Z,11.81
2024-03-05T06:22:30.005Z,11.82
2024-03-05T06:23:36.201Z,11.74
2024-03-05T06:24:37.708Z,11.61
2024-03-05T06:25:40.815Z,11.41
2024-03-05T06:26:42.710Z,11.33
2024-03-05T06:27:44.848Z,11.37
2024-03-05T06:28:46.370Z,11.20
2024-03-05T06:29:47.868Z,11.36
2024-03-05T06:30:50.598Z,11.25
2024-03-05T06:31:52.289Z,11.29
2024-03-05T06:32:54.000Z,11.36
2024-03-05T06:33:55.730Z,11.25
2024-03-05T06:34:57.332Z,11.27
2024-03-05T06:35:59.384Z,11.44
2024-03-05T06:37:02.577Z,11.44
2024-03-05T06:38:07.703Z,11.40
2024-03-05T06:39:19.350Z,11.52
2024-03-05T06:40:21.573Z,11.53
2024-03-05T06:41:26.322Z,11.39
2024-03-05T06:42:31.883Z,11.44
2024-03-05T06:43:42.938Z,11.50
2024-03-05T06:44:48.743Z,11.60
2024-03-05T06:45:50.428Z,11.57
2024-03-05T06:46:55.283Z,11.51
2024-03-05T06:49:09.464Z,11.26
2024-03-05T06:50:20.519Z,11.40
2024-03-05T06:51:29.975Z,11.58
2024-03-05T06:52:50.108Z,11.63
2024-03-05T06:54:10.357Z,11.76
2024-03-05T06:55:30.537Z,11.79
2024-03-05T06:56:41.124Z,11.82
2024-03-05T06:57:43.309Z,11.79
2024-03-05T06:58:47.170Z,11.69
2024-03-05T06:59:50.850Z,11.72
2024-03-05T07:00:52.429Z,11.82
2024-03-05T07:01:56.037Z,11.84
2024-03-05T07:02:58.584Z,11.80
2024-03-05T07:04:00.088Z,11.77
2024-03-05T07:05:02.432Z,11.75
2024-03-05T07:06:14.463Z,11.62
2024-03-05T07:07:16.431Z,11.74
2024-03-05T07:08:18.487Z,11.70
2024-03-05T07:09:20.812Z,11.63
2024-03-05T07:10:22.627Z,11.51
2024-03-05T07:11:26.938Z,11.58
2024-03-05T07:12:31.376Z,10.68
2024-03-05T07:13:35.044Z,11.27
2024-03-05T07:14:38.393Z,11.50
2024-03-05T07:15:39.881Z,11.63
2024-03-05T07:16:41.486Z,11.64
2024-03-05T07:17:45.976Z,11.67
2024-03-05T07:18:49.169Z,11.80
2024-03-05T07:19:50.772Z,11.93
2024-03-05T07:20:52.269Z,11.99
2024-03-05T07:21:53.757Z,11.98
2024-03-05T07:22:55.750Z,12.08
2024-03-05T07:23:59.212Z,12.07
2024-03-05T07:25:00.729Z,12.11
2024-03-05T07:26:06.030Z,12.17
2024-03-05T07:27:09.475Z,12.22
2024-03-05T07:28:14.037Z,12.24
2024-03-05T07:29:15.565Z,12.24
2024-03-05T07:30:18.315Z,12.21
2024-03-05T07:31:20.406Z,12.21
2024-03-05T07:32:22.179Z,12.29
2024-03-05T07:33:24.010Z,12.29
2024-03-05T07:34:25.587Z,12.32
2024-03-05T07:35:27.091Z,12.34
2024-03-05T07:36:28.704Z,12.34
2024-03-05T07:37:30.803Z,11.81
2024-03-05T07:38:32.700Z,11.77
2024-03-05T07:39:34.206Z,11.91
2024-03-05T07:40:35.750Z,12.06
2024-03-05T07:41:37.372Z,12.20
2024-03-05T07:42:44.494Z,12.20
2024-03-05T07:43:46.091Z,12.19
2024-03-05T07:44:47.572Z,12.06
2024-03-05T07:45:50.816Z,12.23
2024-03-05T07:46:52.719Z,12.17
2024-03-05T07:47:54.315Z,12.22
2024-03-05T07:48:56.526Z,12.15
2024-03-05T07:49:58.061Z,12.29
2024-03-05T07:50:59.591Z,12.27
2024-03-05T07:52:01.074Z,12.37
2024-03-05T07:53:03.623Z,12.38
2024-03-05T07:54:05.205Z,12.45
2024-03-05T07:55:12.161Z,12.36
2024-03-05T07:56:13.923Z,12.54
2024-03-05T07:57:15.545Z,12.54
2024-03-05T07:58:17.406Z,12.56
2024-03-05T07:59:18.947Z,12.55
2024-03-05T08:00:24.408Z,12.54
2024-03-05T08:01:26.012Z,12.61
2024-03-05T08:02:27.590Z,12.61
2024-03-05T08:03:29.527Z,12.66
2024-03-05T08:04:31.068Z,12.64
2024-03-05T08:05:32.668Z,12.66
2024-03-05T08:06:34.212Z,12.72
2024-03-05T08:07:36.800Z,12.73
2024-03-05T08:08:38.734Z,12.80
2024-03-05T08:09:40.239Z,12.75
2024-03-05T08:10:41.814Z,12.73
2024-03-05T08:11:43.370Z,12.73
2024-03-05T08:12:46.732Z,12.81
2024-03-05T08:13:48.594Z,12.91
2024-03-05T08:14:50.100Z,12.96
2024-03-05T08:15:51.590Z,12.99
2024-03-05T08:16:53.118Z,13.00
2024-03-05T08:17:57.379Z,13.09
2024-03-05T08:18:59.351Z,13.19
2024-03-05T08:20:01.925Z,13.21
2024-03-05T08:21:03.679Z,13.33
2024-03-05T08:22:06.339Z,13.43
2024-03-05T08:23:08.916Z,13.44
2024-03-05T08:24:10.705Z,13.53
2024-03-05T08:25:14.480Z,13.58
2024-03-05T08:26:16.009Z,13.67
2024-03-05T08:27:17.732Z,13.73
2024-03-05T08:28:19.301Z,13.89
2024-03-05T08:29:21.426Z,13.98
2024-03-05T08:30:24.697Z,14.10
2024-03-05T08:31:27.021Z,14.24
2024-03-05T08:32:28.661Z,14.41
2024-03-05T08:33:30.208Z,14.54
2024-03-05T08:34:32.136Z,14.65
2024-03-05T08:35:33.647Z,14.91
2024-03-05T08:36:38.032Z,15.38
2024-03-05T08:37:41.932Z,15.64
2024-03-05T08:38:46.064Z,15.87
2024-03-05T08:39:48.018Z,15.94
2024-03-05T08:40:50.344Z,16.03
2024-03-05T08:41:52.050Z,16.09
2024-03-05T08:42:57.874Z,16.07
2024-03-05T08:43:59.511Z,16.04
2024-03-05T08:45:01.649Z,16.03
2024-03-05T08:46:05.513Z,15.82
2024-03-05T08:47:07.722Z,15.83
2024-03-05T08:48:09.353Z,15.72
2024-03-05T08:49:10.891Z,15.40
2024-03-05T08:50:12.875Z,15.36
2024-03-05T08:51:14.758Z,15.60
2024-03-05T08:52:17.169Z,15.45
2024-03-05T08:53:18.717Z,15.18
2024-03-05T08:54:20.333Z,15.01
2024-03-05T08:55:22.066Z,14.98
2024-03-05T08:56:24.938Z,14.93
2024-03-05T08:57:27.340Z,15.09
2024-03-05T08:58:29.696Z,15.22
2024-03-05T08:59:32.896Z,15.23
2024-03-05T09:00:42.114Z,15.29
2024-03-05T09:01:45.289Z,15.46
2024-03-05T09:02:46.897Z,15.57
2024-03-05T09:03:48.578Z,15.95
2024-03-05T09:04:52.403Z,16.23
2024-03-05T09:05:54.403Z,16.39
2024-03-05T09:06:56.064Z,16.23
2024-03-05T09:07:57.666Z,16.15
2024-03-05T09:08:59.397Z,16.49
2024-03-05T09:10:01.515Z,17.01
2024-03-05T09:11:06.766Z,17.78
2024-03-05T09:12:08.557Z,18.37
2024-03-05T09:13:10.161Z,18.97
2024-03-05T09:14:12.211Z,18.23
2024-03-05T09:15:17.721Z,18.67
2024-03-05T09:16:19.276Z,18.82
2024-03-05T09:17:22.444Z,18.24
2024-03-05T09:18:23.902Z,18.14
2024-03-05T09:19:25.525Z,16.68
2024-03-05T09:20:27.424Z,15.81
2024-03-05T09:21:29.681Z,16.07
2024-03-05T09:22:31.226Z,15.83
2024-03-05T09:23:32.809Z,13.90
2024-03-05T09:24:34.453Z,14.33
2024-03-05T09:25:37.670Z,13.51
2024-03-05T09:26:39.251Z,12.97
2024-03-05T09:27:46.534Z,13.86
2024-03-05T09:28:48.407Z,13.97
2024-03-05T09:29:49.933Z,13.91
2024-03-05T09:30:51.730Z,14.18
2024-03-05T09:31:53.275Z,14.17
2024-03-05T09:32:54.954Z,13.66
2024-03-05T09:33:56.806Z,12.36
2024-03-05T09:34:58.750Z,12.22
2024-03-05T09:36:00.787Z,12.54
2024-03-05T09:37:02.326Z,12.86
2024-03-05T09:38:04.472Z,13.18
2024-03-05T09:39:10.590Z,13.36
2024-03-05T09:40:19.542Z,13.43
2024-03-05T09:41:22.400Z,13.31
2024-03-05T09:42:24.685Z,13.34
2024-03-05T09:43:26.713Z,13.51
2024-03-05T09:44:29.306Z,13.61
2024-03-05T09:45:32.181Z,13.58
2024-03-05T09:46:33.721Z,13.81
2024-03-05T09:47:38.473Z,13.64
2024-03-05T09:48:40.082Z,13.56
2024-03-05T09:49:43.508Z,12.65
2024-03-05T09:50:47.757Z,12.37
2024-03-05T09:51:49.388Z,12.65
2024-03-05T09:52:50.942Z,12.78
2024-03-05T09:53:54.104Z,12.72
2024-03-05T09:54:55.662Z,12.88
2024-03-05T09:55:57.651Z,13.06
2024-03-05T09:56:59.919Z,13.20
2024-03-05T09:58:04.966Z,13.10
2024-03-05T09:59:06.679Z,13.24
2024-03-05T10:00:11.297Z,13.33
2024-03-05T10:01:13.030Z,13.29
2024-03-05T10:02:17.326Z,13.37
2024-03-05T10:03:19.378Z,13.35
2024-03-05T10:04:23.214Z,13.40
2024-03-05T10:05:26.260Z,13.16
2024-03-05T10:06:28.229Z,13.34
2024-03-05T10:07:29.762Z,13.02
2024-03-05T10:08:31.525Z,13.05
2024-03-05T10:09:33.062Z,13.30
2024-03-05T10:10:35.150Z,13.39
2024-03-05T10:11:37.458Z,13.46
2024-03-05T10:12:40.647Z,13.62
2024-03-05T10:13:42.434Z,13.53
2024-03-05T10:14:43.961Z,13.59
2024-03-05T10:15:45.850Z,13.70
2024-03-05T10:16:47.481Z,13.79
2024-03-05T10:17:50.883Z,13.22
2024-03-05T10:18:52.582Z,13.54
2024-03-05T10:19:54.171Z,13.76
2024-03-05T10:20:55.761Z,13.88
2024-03-05T10:22:11.877Z,14.10
2024-03-05T10:23:16.557Z,14.18
2024-03-05T10:24:28.458Z,13.96
2024-03-05T10:25:30.507Z,14.20
2024-03-05T10:26:33.590Z,14.35
2024-03-05T10:27:35.113Z,14.47
2024-03-05T10:28:36.678Z,14.47
2024-03-05T10:29:38.979Z,14.70
2024-03-05T10:30:44.478Z,14.66
2024-03-05T10:31:48.224Z,14.82
2024-03-05T10:32:54.619Z,15.04
2024-03-05T10:33:59.790Z,15.12
2024-03-05T10:35:02.185Z,15.16
2024-03-05T10:36:04.372Z,15.09
2024-03-05T10:37:06.285Z,14.94
2024-03-05T10:38:11.014Z,15.11
2024-03-05T10:39:14.170Z,15.26
2024-03-05T10:40:16.372Z,15.32
2024-03-05T10:41:47.032Z,15.25
2024-03-05T10:42:53.893Z,15.36
2024-03-05T10:43:57.372Z,15.33
2024-03-05T10:44:59.888Z,15.27
2024-03-05T10:46:02.947Z,15.31
2024-03-05T10:47:05.607Z,15.25
2024-03-05T10:48:12.008Z,15.16
2024-03-05T10:49:15.626Z,15.11
2024-03-05T10:50:18.772Z,15.07
2024-03-05T10:51:22.970Z,14.81
2024-03-05T10:52:27.155Z,14.91
2024-03-05T10:53:28.938Z,14.95
2024-03-05T10:54:31.482Z,14.75
2024-03-05T10:55:35.802Z,14.87
2024-03-05T10:56:44.243Z,14.93
2024-03-05T10:58:22.248Z,14.91
2024-03-05T10:59:41.285Z,15.02
2024-03-05T11:00:45.339Z,15.04
2024-03-05T11:01:47.210Z,14.99
2024-03-05T11:02:48.882Z,15.02
2024-03-05T11:03:53.096Z,14.84
2024-03-05T11:04:55.762Z,14.81
2024-03-05T11:05:59.142Z,14.83
2024-03-05T11:07:03.253Z,14.88
2024-03-05T11:08:05.673Z,14.85
2024-03-05T11:09:10.387Z,14.88
2024-03-05T11:10:13.388Z,14.97
2024-03-05T11:11:20.698Z,14.87
2024-03-05T11:12:22.684Z,14.96
2024-03-05T11:13:25.627Z,14.96
2024-03-05T11:14:27.338Z,15.08
2024-03-05T11:15:29.031Z,15.20
2024-03-05T11:16:37.010Z,15.24
2024-03-05T11:17:39.223Z,15.47
2024-03-05T11:18:41.123Z,15.50
2024-03-05T11:19:46.131Z,15.58
2024-03-05T11:20:48.633Z,15.49
2024-03-05T11:21:50.458Z,15.58
2024-03-05T11:22:52.693Z,15.59
2024-03-05T11:23:54.997Z,15.20
2024-03-05T11:24:57.634Z,15.33
2024-03-05T11:26:04.948Z,15.42
2024-03-05T11:27:13.566Z,15.35
2024-03-05T11:28:21.739Z,15.43
2024-03-05T11:29:26.225Z,15.44
2024-03-05T11:30:30.764Z,15.50
2024-03-05T11:31:32.798Z,15.50
2024-03-05T11:32:35.719Z,15.44
2024-03-05T11:33:39.768Z,15.74
2024-03-05T11:34:50.430Z,15.53
2024-03-05T11:35:54.500Z,15.50
2024-03-05T11:37:12.362Z,15.36
2024-03-05T11:38:19.937Z,15.28
2024-03-05T11:39:21.498Z,15.19
2024-03-05T11:40:33.642Z,15.20
2024-03-05T11:41:45.432Z,15.21
2024-03-05T11:42:47.581Z,15.18
2024-03-05T11:43:49.227Z,15.20
2024-03-05T11:44:51.459Z,14.93
2024-03-05T11:45:53.140Z,15.00
2024-03-05T11:46:56.800Z,14.88
2024-03-05T11:48:00.410Z,14.76
2024-03-05T11:49:02.051Z,14.85
2024-03-05T11:50:08.019Z,14.83
2024-03-05T11:51:09.798Z,14.86
2024-03-05T11:52:11.854Z,14.94
2024-03-05T11:53:14.060Z,14.97
2024-03-05T11:54:19.369Z,14.94
2024-03-05T11:55:26.248Z,14.93
2024-03-05T11:56:27.788Z,14.98
2024-03-05T11:57:29.378Z,14.95
2024-03-05T11:58:31.395Z,14.91
2024-03-05T11:59:40.393Z,14.87
2024-03-05T12:00:41.848Z,15.21
2024-03-05T12:01:43.748Z,15.06
2024-03-05T12:02:45.860Z,14.91
2024-03-05T12:03:47.768Z,14.98
2024-03-05T12:04:50.493Z,15.03
2024-03-05T12:05:52.122Z,15.35
2024-03-05T12:07:03.726Z,15.28
2024-03-05T12:08:08.227Z,15.11
2024-03-05T12:09:22.182Z,15.14
2024-03-05T12:10:27.368Z,15.22
2024-03-05T12:11:29.534Z,15.21
2024-03-05T12:12:33.191Z,14.87
2024-03-05T12:13:34.770Z,14.89
2024-03-05T12:14:38.023Z,15.07
2024-03-05T12:15:39.760Z,15.14
2024-03-05T12:16:41.501Z,15.10
2024-03-05T12:17:43.108Z,15.18
2024-03-05T12:18:44.692Z,15.11
2024-03-05T12:19:47.988Z,14.98
2024-03-05T12:20:49.593Z,15.16
2024-03-05T12:21:51.134Z,15.08
2024-03-05T12:22:56.927Z,15.20
2024-03-05T12:24:00.380Z,15.19
2024-03-05T12:25:01.905Z,15.22
2024-03-05T12:26:04.819Z,15.14
2024-03-05T12:27:07.105Z,15.44
2024-03-05T12:28:09.149Z,15.38
2024-03-05T12:29:10.857Z,15.31
2024-03-05T12:30:13.989Z,15.21
2024-03-05T12:31:15.558Z,15.21
2024-03-05T12:32:19.613Z,15.19
2024-03-05T12:33:23.419Z,15.08
2024-03-05T12:34:26.897Z,15.12
2024-03-05T12:35:28.978Z,15.13
2024-03-05T12:36:30.512Z,15.11
2024-03-05T12:37:32.430Z,15.13
2024-03-05T12:38:34.110Z,15.13
2024-03-05T12:39:36.915Z,15.13
2024-03-05T12:40:38.469Z,15.20
2024-03-05T12:41:41.932Z,15.24
2024-03-05T12:42:48.086Z,15.17
2024-03-05T12:43:56.742Z,15.10
2024-03-05T12:45:09.984Z,15.31
2024-03-05T12:46:19.130Z,15.40
2024-03-05T12:47:21.093Z,15.57
2024-03-05T12:48:28.407Z,15.56
2024-03-05T12:49:30.956Z,15.54
2024-03-05T12:50:33.237Z,15.43
2024-03-05T12:51:34.798Z,15.41
2024-03-05T12:52:36.927Z,15.49
2024-03-05T12:53:38.579Z,15.48
2024-03-05T12:54:40.142Z,15.57
2024-03-05T12:55:41.662Z,15.64
2024-03-05T12:56:46.822Z,15.63
2024-03-05T12:57:48.559Z,15.59
2024-03-05T12:58:50.078Z,15.49
2024-03-05T12:59:51.744Z,15.68
2024-03-05T13:00:56.029Z,15.76
2024-03-05T13:01:59.341Z,15.72
2024-03-05T13:03:08.656Z,15.64
2024-03-05T13:04:10.163Z,15.88
2024-03-05T13:05:11.840Z,15.79
2024-03-05T13:06:13.585Z,15.76
2024-03-05T13:07:15.460Z,15.73
2024-03-05T13:08:17.039Z,15.71
2024-03-05T13:09:22.864Z,15.70
2024-03-05T13:10:24.495Z,15.69
2024-03-05T13:11:26.154Z,15.60
2024-03-05T13:12:28.726Z,15.52
2024-03-05T13:13:30.954Z,15.47
2024-03-05T13:14:32.449Z,15.45
2024-03-05T13:15:34.009Z,15.48
2024-03-05T13:16:36.201Z,15.43
2024-03-05T13:17:37.764Z,15.38
2024-03-05T13:18:39.663Z,15.38
2024-03-05T13:19:41.283Z,15.43
2024-03-05T13:20:42.885Z,15.35
2024-03-05T13:21:44.414Z,15.28
2024-03-05T13:22:51.111Z,15.13
2024-03-05T13:23:53.212Z,15.25
2024-03-05T13:24:55.910Z,15.16
2024-03-05T13:25:59.018Z,15.16
2024-03-05T13:27:00.995Z,15.10
2024-03-05T13:28:03.192Z,14.92
2024-03-05T13:29:05.124Z,14.84
2024-03-05T13:30:12.633Z,14.82
2024-03-05T13:31:16.826Z,14.68
2024-03-05T13:32:18.464Z,14.71
2024-03-05T13:33:24.686Z,14.76
2024-03-05T13:34:27.494Z,12.89